createdAt,value
2018-10-17T00:03:54.688Z,100686.00
2018-10-17T00:06:10.094Z,100691.66
2018-10-17T00:08:23.523Z,100692.43
2018-10-17T00:10:42.777Z,100687.97
2018-10-17T00:12:47.296Z,100693.74
2018-10-17T00:17:07.266Z,100697.13
2018-10-17T00:19:17.917Z,100698.17
2018-10-17T00:21:30.788Z,100693.16
2018-10-17T00:23:43.630Z,100695.63
2018-10-17T00:26:07.748Z,100703.38
2018-10-17T00:28:25.457Z,100699.73
2018-10-17T00:30:32.493Z,100701.28
2018-10-17T00:32:55.324Z,100701.47
2018-10-17T00:35:11.529Z,100701.14
2018-10-17T00:37:24.515Z,100699.15
2018-10-17T00:39:33.867Z,100697.44
2018-10-17T00:42:03.054Z,100696.52
2018-10-17T00:44:23.345Z,100699.15
2018-10-17T00:46:32.689Z,100694.86
2018-10-17T00:48:42.127Z,100695.31
2018-10-17T00:50:51.550Z,100697.89
2018-10-17T00:53:05.410Z,100697.25
2018-10-17T00:55:27.853Z,100693.17
2018-10-17T00:57:34.615Z,100691.48
2018-10-17T00:59:46.903Z,100692.85
2018-10-17T01:01:59.427Z,100683.70
2018-10-17T01:04:06.836Z,100694.00
2018-10-17T01:06:17.432Z,100691.77
2018-10-17T01:08:35.901Z,100685.66
2018-10-17T01:11:05.332Z,100682.13
2018-10-17T01:13:13.572Z,100677.19
2018-10-17T01:15:21.537Z,100672.12
2018-10-17T01:17:30.558Z,100674.07
2018-10-17T01:19:38.574Z,100682.64
2018-10-17T01:21:46.797Z,100679.00
2018-10-17T01:23:54.826Z,100682.72
2018-10-17T01:26:03.508Z,100678.14
2018-10-17T01:28:11.606Z,100682.21
2018-10-17T01:30:19.708Z,100679.23
2018-10-17T01:32:27.660Z,100678.82
2018-10-17T01:34:36.406Z,100679.68
2018-10-17T01:36:44.507Z,100678.77
2018-10-17T01:38:52.517Z,100675.83
2018-10-17T01:41:04.440Z,100674.11
2018-10-17T01:43:12.795Z,100675.02
2018-10-17T01:45:20.792Z,100679.86
2018-10-17T01:47:28.835Z,100667.27
2018-10-17T01:49:36.834Z,100665.95
2018-10-17T01:51:44.845Z,100662.97
2018-10-17T01:53:52.881Z,100666.05
2018-10-17T01:56:01.854Z,100656.53
2018-10-17T01:58:10.592Z,100659.25
2018-10-17T02:00:21.323Z,100662.50
2018-10-17T02:02:29.694Z,100658.74
2018-10-17T02:04:37.719Z,100660.18
2018-10-17T02:06:45.848Z,100659.83
2018-10-17T02:08:55.906Z,100660.41
2018-10-17T02:11:04.459Z,100657.45
2018-10-17T02:13:12.504Z,100654.47
2018-10-17T02:15:20.493Z,100658.08
2018-10-17T02:17:28.574Z,100650.75
2018-10-17T02:19:37.197Z,100656.36
2018-10-17T02:21:45.232Z,100654.88
2018-10-17T02:23:53.966Z,100653.39
2018-10-17T02:26:01.984Z,100652.37
2018-10-17T02:28:10.092Z,100650.46
2018-10-17T02:30:19.306Z,100649.55
2018-10-17T02:32:27.442Z,100652.13
2018-10-17T02:34:54.786Z,100659.15
2018-10-17T02:37:02.910Z,100663.58
2018-10-17T02:39:12.130Z,100666.80
2018-10-17T02:41:20.864Z,100662.58
2018-10-17T02:43:28.867Z,100657.05
2018-10-17T02:45:37.468Z,100660.86
2018-10-17T02:47:46.778Z,100656.30
2018-10-17T02:49:54.717Z,100654.52
2018-10-17T02:52:02.747Z,100656.93
2018-10-17T02:54:11.044Z,100648.88
2018-10-17T02:56:19.135Z,100646.89
2018-10-17T02:58:27.057Z,100655.45
2018-10-17T03:00:35.078Z,100653.55
2018-10-17T03:02:45.694Z,100644.19
2018-10-17T03:04:53.997Z,100655.05
2018-10-17T03:09:11.364Z,100656.18
2018-10-17T03:11:19.922Z,100654.36
2018-10-17T03:13:28.098Z,100652.18
2018-10-17T03:15:36.469Z,100655.61
2018-10-17T03:17:44.480Z,100665.55
2018-10-17T03:19:52.569Z,100654.90
2018-10-17T03:22:03.455Z,100663.80
2018-10-17T03:24:11.371Z,100663.52
2018-10-17T03:26:19.416Z,100664.13
2018-10-17T03:28:27.446Z,100667.81
2018-10-17T03:30:35.428Z,100666.70
2018-10-17T03:32:43.857Z,100668.43
2018-10-17T03:34:51.880Z,100663.47
2018-10-17T03:36:59.963Z,100669.08
2018-10-17T03:39:12.484Z,100662.94
2018-10-17T03:41:20.566Z,100663.77
2018-10-17T03:43:28.522Z,100662.86
2018-10-17T03:45:36.571Z,100669.53
2018-10-17T03:47:45.011Z,100669.29
2018-10-17T03:49:53.284Z,100669.61
2018-10-17T03:52:01.103Z,100674.69
2018-10-17T03:54:09.419Z,100675.75
2018-10-17T03:56:17.701Z,100671.94
2018-10-17T03:58:25.693Z,100674.19
2018-10-17T04:00:36.268Z,100672.05
2018-10-17T04:02:45.576Z,100669.88
2018-10-17T04:04:54.034Z,100669.31
2018-10-17T04:07:02.081Z,100669.27
2018-10-17T04:09:10.938Z,100668.34
2018-10-17T04:11:19.963Z,100677.92
2018-10-17T04:13:29.387Z,100671.36
2018-10-17T04:15:40.005Z,100676.61
2018-10-17T04:17:53.514Z,100671.89
2018-10-17T04:20:02.407Z,100675.41
2018-10-17T04:22:12.515Z,100672.38
2018-10-17T04:24:20.561Z,100677.63
2018-10-17T04:26:28.858Z,100676.31
2018-10-17T04:28:39.264Z,100678.12
2018-10-17T04:30:47.232Z,100674.75
2018-10-17T04:32:55.277Z,100682.73
2018-10-17T04:35:03.357Z,100681.50
2018-10-17T04:37:15.449Z,100677.02
2018-10-17T04:39:21.169Z,100679.67
2018-10-17T04:41:29.394Z,100683.87
2018-10-17T04:43:37.453Z,100681.47
2018-10-17T04:45:45.416Z,100680.87
2018-10-17T04:47:53.561Z,100674.51
2018-10-17T04:50:01.500Z,100683.27
2018-10-17T04:52:09.578Z,100679.03
2018-10-17T04:54:17.567Z,100672.11
2018-10-17T04:56:26.002Z,100676.03
2018-10-17T04:58:34.250Z,100676.52
2018-10-17T05:00:42.412Z,100678.66
2018-10-17T05:02:52.619Z,100680.90
2018-10-17T05:05:00.725Z,100688.30
2018-10-17T05:07:08.785Z,100681.99
2018-10-17T05:09:17.043Z,100686.15
2018-10-17T05:11:25.543Z,100681.28
2018-10-17T05:13:33.552Z,100680.83
2018-10-17T05:15:41.910Z,100685.09
2018-10-17T05:17:49.857Z,100687.72
2018-10-17T05:19:57.892Z,100696.02
2018-10-17T05:22:05.938Z,100688.58
2018-10-17T05:24:13.913Z,100688.17
2018-10-17T05:26:21.928Z,100688.73
2018-10-17T05:28:30.463Z,100683.12
2018-10-17T05:30:38.829Z,100690.56
2018-10-17T05:32:52.047Z,100689.33
2018-10-17T05:35:00.068Z,100697.07
2018-10-17T05:37:08.157Z,100689.48
2018-10-17T05:39:16.071Z,100692.73
2018-10-17T05:41:24.332Z,100695.91
2018-10-17T05:43:32.399Z,100695.72
2018-10-17T05:45:40.439Z,100703.52
2018-10-17T05:47:48.471Z,100700.18
2018-10-17T05:49:57.748Z,100699.99
2018-10-17T05:52:05.833Z,100700.52
2018-10-17T05:54:14.139Z,100700.22
2018-10-17T05:56:22.243Z,100704.19
2018-10-17T05:58:30.198Z,100709.05
2018-10-17T06:00:39.652Z,100711.97
2018-10-17T06:02:49.228Z,100709.61
2018-10-17T06:04:57.278Z,100706.92
2018-10-17T06:07:05.841Z,100709.09
2018-10-17T06:09:13.925Z,100707.85
2018-10-17T06:11:24.742Z,100708.30
2018-10-17T06:13:36.158Z,100711.41
2018-10-17T06:15:45.082Z,100705.91
2018-10-17T06:17:56.081Z,100706.36
2018-10-17T06:20:04.197Z,100707.73
2018-10-17T06:22:13.112Z,100707.33
2018-10-17T06:24:21.146Z,100703.84
2018-10-17T06:26:29.296Z,100701.23
2018-10-17T06:28:37.350Z,100699.02
2018-10-17T06:30:45.435Z,100700.37
2018-10-17T06:32:53.394Z,100700.92
2018-10-17T06:35:01.383Z,100700.21
2018-10-17T06:37:09.827Z,100701.73
2018-10-17T06:39:18.129Z,100704.91
2018-10-17T06:41:26.282Z,100701.92
2018-10-17T06:43:34.514Z,100704.98
2018-10-17T06:45:44.279Z,100703.64
2018-10-17T06:47:52.631Z,100713.08
2018-10-17T06:50:00.637Z,100711.92
2018-10-17T06:52:08.721Z,100710.28
2018-10-17T06:54:16.819Z,100709.20
2018-10-17T06:56:25.214Z,100704.94
2018-10-17T06:58:33.289Z,100704.55
2018-10-17T07:00:42.863Z,100707.72
2018-10-17T07:02:50.860Z,100698.69
2018-10-17T07:04:58.893Z,100709.47
2018-10-17T07:07:06.990Z,100705.30
2018-10-17T07:09:14.932Z,100702.02
2018-10-17T07:11:23.038Z,100704.81
2018-10-17T07:13:31.476Z,100712.94
2018-10-17T07:15:39.679Z,100709.77
2018-10-17T07:17:47.737Z,100715.14
2018-10-17T07:19:55.769Z,100715.80
2018-10-17T07:22:05.251Z,100715.55
2018-10-17T07:24:13.455Z,100720.14
2018-10-17T07:26:21.523Z,100712.99
2018-10-17T07:28:29.561Z,100714.55
2018-10-17T07:30:37.744Z,100709.98
2018-10-17T07:32:49.835Z,100711.53
2018-10-17T07:34:57.873Z,100707.42
2018-10-17T07:37:06.107Z,100706.34
2018-10-17T07:39:14.159Z,100707.89
2018-10-17T07:41:24.584Z,100707.48
2018-10-17T07:43:33.800Z,100714.16
2018-10-17T07:45:41.999Z,100705.55
2018-10-17T07:47:51.603Z,100707.35
2018-10-17T07:50:00.345Z,100710.93
2018-10-17T07:52:09.628Z,100710.59
2018-10-17T07:54:17.689Z,100708.37
2018-10-17T07:56:25.820Z,100708.08
2018-10-17T07:58:34.051Z,100712.50
2018-10-17T08:00:42.080Z,100713.87
2018-10-17T08:02:50.055Z,100710.08
2018-10-17T08:04:58.559Z,100717.59
2018-10-17T08:07:07.044Z,100709.84
2018-10-17T08:09:15.091Z,100711.22
2018-10-17T08:11:23.072Z,100710.91
2018-10-17T08:13:31.301Z,100711.42
2018-10-17T08:15:39.384Z,100715.83
2018-10-17T08:17:47.432Z,100712.48
2018-10-17T08:19:55.471Z,100709.13
2018-10-17T08:22:09.827Z,100715.75
2018-10-17T08:24:18.284Z,100717.14
2018-10-17T08:26:27.492Z,100712.84
2018-10-17T08:28:35.521Z,100717.31
2018-10-17T08:30:43.601Z,100714.38
2018-10-17T08:32:51.628Z,100710.12
2018-10-17T08:34:59.631Z,100716.83
2018-10-17T08:37:08.962Z,100711.19
2018-10-17T08:39:16.746Z,100716.48
2018-10-17T08:41:25.161Z,100710.87
2018-10-17T08:43:33.161Z,100708.34
2018-10-17T08:45:38.603Z,100710.60
2018-10-17T08:47:47.788Z,100708.37
2018-10-17T08:49:55.839Z,100712.77
2018-10-17T08:52:05.091Z,100710.59
2018-10-17T08:54:13.111Z,100722.02
2018-10-17T08:56:21.259Z,100719.77
2018-10-17T08:58:29.720Z,100708.72
2018-10-17T09:00:37.702Z,100714.77
2018-10-17T09:02:45.912Z,100720.84
2018-10-17T09:04:53.935Z,100717.36
2018-10-17T09:07:02.057Z,100716.95
2018-10-17T09:09:14.560Z,100714.78
2018-10-17T09:11:24.823Z,100720.44
2018-10-17T09:13:33.359Z,100720.80
2018-10-17T09:15:41.244Z,100720.16
2018-10-17T09:17:49.364Z,100715.17
2018-10-17T09:19:57.679Z,100715.91
2018-10-17T09:22:07.339Z,100709.69
2018-10-17T09:24:15.065Z,100710.03
2018-10-17T09:26:23.034Z,100716.98
2018-10-17T09:28:31.133Z,100711.29
2018-10-17T09:30:41.675Z,100714.92
2018-10-17T09:32:49.659Z,100712.87
2018-10-17T09:34:58.322Z,100712.81
2018-10-17T09:37:06.444Z,100709.24
2018-10-17T09:39:14.496Z,100705.63
2018-10-17T09:41:22.654Z,100710.47
2018-10-17T09:43:30.986Z,100701.71
2018-10-17T09:45:42.402Z,100698.25
2018-10-17T09:47:47.801Z,100696.95
2018-10-17T09:49:55.853Z,100699.17
2018-10-17T09:54:13.114Z,100697.87
2018-10-17T09:56:21.023Z,100691.75
2018-10-17T09:58:29.134Z,100694.77
2018-10-17T10:00:57.142Z,100690.05
2018-10-17T10:03:19.370Z,100685.24
2018-10-17T10:05:39.092Z,100687.80
2018-10-17T10:07:42.309Z,100684.13
2018-10-17T10:09:50.302Z,100680.99
2018-10-17T10:11:58.387Z,100685.25
2018-10-17T10:14:06.684Z,100686.22
2018-10-17T10:16:15.007Z,100678.66
2018-10-17T10:18:23.096Z,100678.54
2018-10-17T10:20:31.019Z,100680.60
2018-10-17T10:22:39.030Z,100673.97
2018-10-17T10:24:47.871Z,100675.38
2018-10-17T10:26:55.849Z,100674.87
2018-10-17T10:29:04.007Z,100668.78
2018-10-17T10:31:12.317Z,100669.25
2018-10-17T10:33:20.448Z,100672.36
2018-10-17T10:35:28.475Z,100669.66
2018-10-17T10:37:36.606Z,100660.34
2018-10-17T10:39:44.660Z,100661.69
2018-10-17T10:41:52.614Z,100664.77
2018-10-17T10:44:01.450Z,100656.05
2018-10-17T10:46:10.454Z,100652.86
2018-10-17T10:48:19.233Z,100658.23
2018-10-17T10:50:27.280Z,100655.16
2018-10-17T10:52:35.367Z,100648.49
2018-10-17T10:54:43.658Z,100647.70
2018-10-17T10:56:52.333Z,100643.27
2018-10-17T10:59:01.052Z,100641.99
2018-10-17T11:01:16.341Z,100638.67
2018-10-17T11:03:24.490Z,100636.06
2018-10-17T11:05:33.314Z,100641.06
2018-10-17T11:07:41.028Z,100632.76
2018-10-17T11:09:49.062Z,100628.83
2018-10-17T11:11:57.152Z,100624.06
2018-10-17T11:14:05.445Z,100616.85
2018-10-17T11:16:13.412Z,100621.27
2018-10-17T11:18:21.787Z,100618.55
2018-10-17T11:20:29.817Z,100618.59
2018-10-17T11:22:37.855Z,100615.12
2018-10-17T11:24:45.846Z,100612.50
2018-10-17T11:26:53.908Z,100614.59
2018-10-17T11:29:01.923Z,100612.72
2018-10-17T11:31:09.889Z,100613.95
2018-10-17T11:33:18.006Z,100610.36
2018-10-17T11:35:26.933Z,100609.81
2018-10-17T11:37:35.029Z,100607.08
2018-10-17T11:39:45.859Z,100595.59
2018-10-17T11:41:54.646Z,100594.30
2018-10-17T11:44:02.745Z,100583.66
2018-10-17T11:46:10.892Z,100585.13
2018-10-17T11:48:32.129Z,100583.10
2018-10-17T11:50:42.502Z,100580.09
2018-10-17T11:52:50.900Z,100577.44
2018-10-17T11:54:58.972Z,100575.28
2018-10-17T11:57:07.216Z,100574.06
2018-10-17T11:59:16.474Z,100575.79
2018-10-17T12:01:24.446Z,100573.62
2018-10-17T12:03:32.582Z,100566.00
2018-10-17T12:05:41.032Z,100568.31
2018-10-17T12:07:48.542Z,100563.09
2018-10-17T12:09:56.554Z,100561.91
2018-10-17T12:12:06.542Z,100553.55
2018-10-17T12:14:17.017Z,100551.04
2018-10-17T12:16:25.022Z,100553.70
2018-10-17T12:18:33.067Z,100551.16
2018-10-17T12:20:41.796Z,100549.34
2018-10-17T12:22:49.913Z,100544.49
2018-10-17T12:24:57.895Z,100540.12
2018-10-17T12:27:05.953Z,100537.45
2018-10-17T12:29:14.419Z,100537.45
2018-10-17T12:31:22.424Z,100541.19
2018-10-17T12:33:30.667Z,100531.95
2018-10-17T12:35:38.694Z,100536.92
2018-10-17T12:37:46.818Z,100529.91
2018-10-17T12:39:54.945Z,100533.86
2018-10-17T12:42:02.816Z,100517.51
2018-10-17T12:44:10.966Z,100522.02
2018-10-17T12:46:19.426Z,100518.59
2018-10-17T12:48:27.400Z,100517.00
2018-10-17T12:50:36.796Z,100518.09
2018-10-17T12:52:43.579Z,100512.61
2018-10-17T12:54:51.727Z,100511.04
2018-10-17T12:56:59.888Z,100509.92
2018-10-17T12:59:08.191Z,100507.38
2018-10-17T13:01:16.246Z,100504.33
2018-10-17T13:03:24.749Z,100511.58
2018-10-17T13:05:32.832Z,100504.67
2018-10-17T13:07:41.002Z,100517.63
2018-10-17T13:09:49.673Z,100511.17
2018-10-17T13:11:57.723Z,100506.29
2018-10-17T13:14:26.008Z,100506.05
2018-10-17T13:16:39.298Z,100504.81
2018-10-17T13:18:47.809Z,100507.20
2018-10-17T13:20:55.875Z,100498.47
2018-10-17T13:23:03.963Z,100497.71
2018-10-17T13:25:12.093Z,100488.09
2018-10-17T13:27:20.062Z,100491.39
2018-10-17T13:29:28.149Z,100488.81
2018-10-17T13:31:36.281Z,100492.22
2018-10-17T13:33:44.366Z,100490.97
2018-10-17T13:35:52.789Z,100484.65
2018-10-17T13:38:00.892Z,100488.37
2018-10-17T13:40:08.945Z,100481.42
2018-10-17T13:42:17.011Z,100481.30
2018-10-17T13:44:25.079Z,100486.40
2018-10-17T13:46:34.004Z,100479.08
2018-10-17T13:48:42.060Z,100475.80
2018-10-17T13:50:50.484Z,100479.31
2018-10-17T13:52:59.627Z,100478.83
2018-10-17T13:55:08.923Z,100477.82
2018-10-17T13:57:17.862Z,100475.15
2018-10-17T13:59:26.010Z,100474.66
2018-10-17T14:01:34.054Z,100476.85
2018-10-17T14:03:44.273Z,100485.72
2018-10-17T14:05:54.484Z,100480.86
2018-10-17T14:08:03.782Z,100479.52
2018-10-17T14:10:11.848Z,100480.86
2018-10-17T14:15:06.008Z,100482.56
2018-10-17T14:17:14.092Z,100483.41
2018-10-17T14:19:22.789Z,100487.05
2018-10-17T14:21:30.972Z,100485.72
2018-10-17T14:23:39.148Z,100487.17
2018-10-17T14:25:48.380Z,100483.53
2018-10-17T14:27:56.388Z,100485.35
2018-10-17T14:30:05.902Z,100480.86
2018-10-17T14:32:15.069Z,100485.72
2018-10-17T14:34:24.015Z,100477.22
2018-10-17T14:36:32.919Z,100475.88
2018-10-17T14:38:41.003Z,100473.20
2018-10-17T14:40:49.455Z,100471.02
2018-10-17T14:42:57.648Z,100471.87
2018-10-17T14:45:05.762Z,100464.34
2018-10-17T14:47:16.860Z,100470.17
2018-10-17T14:49:27.028Z,100474.54
2018-10-17T14:51:35.694Z,100469.68
2018-10-17T14:53:44.571Z,100463.36
2018-10-17T14:55:52.950Z,100464.70
2018-10-17T14:58:00.848Z,100459.96
2018-10-17T15:00:13.105Z,100460.81
2018-10-17T15:02:21.163Z,100462.92
2018-10-17T15:04:29.258Z,100463.04
2018-10-17T15:06:39.522Z,100466.84
2018-10-17T15:08:47.530Z,100472.67
2018-10-17T15:10:55.795Z,100469.27
2018-10-17T15:13:03.721Z,100468.06
2018-10-17T15:15:13.592Z,100467.48
2018-10-17T15:17:21.580Z,100461.42
2018-10-17T15:19:29.685Z,100465.22
2018-10-17T15:21:38.417Z,100468.02
2018-10-17T15:23:46.436Z,100471.81
2018-10-17T15:25:54.634Z,100473.55
2018-10-17T15:28:02.726Z,100473.27
2018-10-17T15:30:11.039Z,100480.23
2018-10-17T15:32:19.030Z,100472.94
2018-10-17T15:34:27.113Z,100477.22
2018-10-17T15:36:36.155Z,100473.82
2018-10-17T15:38:44.590Z,100476.28
2018-10-17T15:40:53.793Z,100471.45
2018-10-17T15:43:01.837Z,100479.70
2018-10-17T15:45:09.948Z,100474.27
2018-10-17T15:47:18.991Z,100474.55
2018-10-17T15:49:27.039Z,100483.64
2018-10-17T15:51:36.550Z,100479.91
2018-10-17T15:53:45.714Z,100477.48
2018-10-17T15:55:52.203Z,100477.75
2018-10-17T15:58:00.232Z,100471.83
2018-10-17T16:00:10.727Z,100478.63
2018-10-17T16:02:18.749Z,100478.04
2018-10-17T16:04:26.773Z,100471.23
2018-10-17T16:06:34.810Z,100468.95
2018-10-17T16:08:42.855Z,100470.19
2018-10-17T16:10:51.265Z,100475.80
2018-10-17T16:13:02.818Z,100475.30
2018-10-17T16:15:12.001Z,100477.50
2018-10-17T16:17:20.083Z,100477.36
2018-10-17T16:19:28.055Z,100480.30
2018-10-17T16:21:36.167Z,100476.79
2018-10-17T16:23:44.477Z,100478.39
2018-10-17T16:25:52.655Z,100486.77
2018-10-17T16:28:01.577Z,100485.45
2018-10-17T16:30:12.771Z,100491.48
2018-10-17T16:32:21.206Z,100488.23
2018-10-17T16:34:29.352Z,100487.39
2018-10-17T16:36:37.916Z,100485.58
2018-10-17T16:38:46.419Z,100489.09
2018-10-17T16:40:55.796Z,100483.88
2018-10-17T16:43:04.059Z,100492.14
2018-10-17T16:45:12.681Z,100492.51
2018-10-17T16:47:20.770Z,100490.66
2018-10-17T16:49:28.796Z,100495.88
2018-10-17T16:51:36.809Z,100503.02
2018-10-17T16:53:44.852Z,100508.34
2018-10-17T16:55:53.166Z,100503.48
2018-10-17T16:57:59.397Z,100512.20
2018-10-17T17:00:09.593Z,100518.86
2018-10-17T17:02:17.642Z,100511.94
2018-10-17T17:04:25.768Z,100514.00
2018-10-17T17:06:33.845Z,100512.41
2018-10-17T17:08:42.363Z,100519.79
2018-10-17T17:10:50.732Z,100522.70
2018-10-17T17:12:58.769Z,100520.50
2018-10-17T17:15:06.970Z,100527.03
2018-10-17T17:17:14.980Z,100533.53
2018-10-17T17:19:24.314Z,100528.45
2018-10-17T17:21:32.443Z,100525.19
2018-10-17T17:23:40.487Z,100532.43
2018-10-17T17:25:48.590Z,100522.61
2018-10-17T17:27:56.632Z,100527.77
2018-10-17T17:30:04.996Z,100528.13
2018-10-17T17:32:13.236Z,100527.48
2018-10-17T17:34:21.534Z,100534.75
2018-10-17T17:36:29.897Z,100534.11
2018-10-17T17:38:38.029Z,100532.17
2018-10-17T17:40:46.758Z,100535.17
2018-10-17T17:42:54.781Z,100535.63
2018-10-17T17:45:02.958Z,100540.20
2018-10-17T17:47:11.129Z,100542.34
2018-10-17T17:49:21.769Z,100538.36
2018-10-17T17:51:29.920Z,100539.99
2018-10-17T17:53:38.330Z,100542.14
2018-10-17T17:55:46.459Z,100543.33
2018-10-17T17:57:55.219Z,100542.81
2018-10-17T18:00:03.700Z,100548.38
2018-10-17T18:02:12.215Z,100549.53
2018-10-17T18:04:21.300Z,100550.72
2018-10-17T18:06:29.757Z,100550.47
2018-10-17T18:08:37.886Z,100550.80
2018-10-17T18:10:45.952Z,100549.41
2018-10-17T18:12:53.994Z,100556.00
2018-10-17T18:15:07.954Z,100554.63
2018-10-17T18:17:17.015Z,100550.12
2018-10-17T18:19:25.800Z,100553.95
2018-10-17T18:21:34.979Z,100557.66
2018-10-17T18:23:51.156Z,100560.03
2018-10-17T18:25:53.456Z,100562.45
2018-10-17T18:28:00.136Z,100562.17
2018-10-17T18:30:13.278Z,100565.63
2018-10-17T18:32:24.101Z,100569.45
2018-10-17T18:34:33.644Z,100569.30
2018-10-17T18:36:45.879Z,100574.09
2018-10-17T18:48:59.329Z,100569.57
2018-10-17T18:51:07.703Z,100578.09
2018-10-17T18:53:15.991Z,100575.29
2018-10-17T18:55:24.091Z,100576.11
2018-10-17T18:57:32.907Z,100583.53
2018-10-17T18:59:41.080Z,100581.19
2018-10-17T19:01:49.220Z,100581.47
2018-10-17T19:03:57.361Z,100584.80
2018-10-17T19:06:05.531Z,100588.03
2018-10-17T19:08:14.008Z,100592.04
2018-10-17T19:10:21.950Z,100602.08
2018-10-17T19:12:32.950Z,100601.02
2018-10-17T19:14:41.025Z,100606.23
2018-10-17T19:16:49.151Z,100603.28
2018-10-17T19:18:57.344Z,100603.30
2018-10-17T19:21:05.521Z,100603.84
2018-10-17T19:23:13.601Z,100605.27
2018-10-17T19:25:20.529Z,100610.67
2018-10-17T19:27:25.860Z,100614.62
2018-10-17T19:29:35.361Z,100606.02
2018-10-17T19:31:46.067Z,100608.75
2018-10-17T19:33:55.276Z,100608.37
2018-10-17T19:38:49.806Z,100611.67
2018-10-17T19:40:58.356Z,100611.78
2018-10-17T19:43:06.775Z,100613.31
2018-10-17T19:45:24.351Z,100620.68
2018-10-17T19:47:29.806Z,100622.67
2018-10-17T19:49:37.934Z,100621.80
2018-10-17T19:51:46.047Z,100627.09
2018-10-17T19:53:58.141Z,100627.57
2018-10-17T19:56:09.584Z,100631.81
2018-10-17T19:58:17.636Z,100621.99
2018-10-17T20:00:25.702Z,100630.20
2018-10-17T20:02:33.721Z,100628.80
2018-10-17T20:04:41.890Z,100632.77
2018-10-17T20:06:49.953Z,100626.16
2018-10-17T20:08:58.896Z,100623.70
2018-10-17T20:11:07.025Z,100625.11
2018-10-17T20:13:21.421Z,100626.91
2018-10-17T20:15:30.413Z,100626.16
2018-10-17T20:17:38.571Z,100629.16
2018-10-17T20:19:46.647Z,100623.02
2018-10-17T20:21:57.551Z,100624.06
2018-10-17T20:24:06.497Z,100627.37
2018-10-17T20:26:14.838Z,100629.25
2018-10-17T20:28:23.434Z,100628.01
2018-10-17T20:30:32.273Z,100629.41
2018-10-17T20:32:41.769Z,100630.16
2018-10-17T20:34:50.599Z,100629.74
2018-10-17T20:36:58.737Z,100623.75
2018-10-17T20:39:10.709Z,100632.23
2018-10-17T20:41:21.499Z,100633.83
2018-10-17T20:43:29.593Z,100635.11
2018-10-17T20:45:40.533Z,100636.03
2018-10-17T20:48:17.549Z,100640.14
2018-10-17T20:50:25.717Z,100639.31
2018-10-17T20:52:34.780Z,100646.98
2018-10-17T20:54:42.782Z,100653.86
2018-10-17T20:56:51.091Z,100656.29
2018-10-17T20:59:25.005Z,100656.12
2018-10-17T21:01:33.094Z,100656.20
2018-10-17T21:03:41.529Z,100661.13
2018-10-17T21:05:52.670Z,100665.63
2018-10-17T21:08:01.020Z,100662.20
2018-10-17T21:10:10.632Z,100657.95
2018-10-17T21:12:18.720Z,100661.25
2018-10-17T21:14:28.894Z,100661.00
2018-10-17T21:16:37.222Z,100660.86
2018-10-17T21:18:45.269Z,100663.75
2018-10-17T21:25:06.287Z,100659.78
2018-10-17T21:27:11.628Z,100657.92
2018-10-17T21:29:20.558Z,100659.03
2018-10-17T21:31:29.212Z,100661.20
2018-10-17T21:33:38.171Z,100657.00
2018-10-17T21:35:47.388Z,100653.18
2018-10-17T21:42:10.317Z,100651.33
2018-10-17T21:44:18.518Z,100650.97
2018-10-17T21:46:26.669Z,100643.77
2018-10-17T21:48:35.017Z,100647.12
2018-10-17T21:50:50.384Z,100646.11
2018-10-17T21:55:05.899Z,100646.82
2018-10-17T21:57:14.404Z,100642.89
2018-10-17T21:59:29.218Z,100645.84
2018-10-17T22:01:37.699Z,100647.94
2018-10-17T22:03:49.500Z,100645.92
2018-10-17T22:06:08.628Z,100639.19
2018-10-17T22:08:28.523Z,100641.59
2018-10-17T22:10:36.527Z,100623.64
2018-10-17T22:12:56.445Z,100639.25
2018-10-17T22:15:16.072Z,100633.64
2018-10-17T22:17:37.493Z,100647.39
2018-10-17T22:19:56.753Z,100636.67
2018-10-17T22:22:16.738Z,100638.70
2018-10-17T22:24:36.834Z,100638.23
2018-10-17T22:26:44.822Z,100645.63
2018-10-17T22:29:04.479Z,100640.23
2018-10-17T22:31:12.528Z,100640.94
2018-10-17T22:33:20.694Z,100641.25
2018-10-17T22:35:28.754Z,100645.59
2018-10-17T22:37:36.750Z,100645.53
2018-10-17T22:39:44.760Z,100646.44
2018-10-17T22:41:52.801Z,100651.52
2018-10-17T22:44:00.986Z,100647.81
2018-10-17T22:46:10.236Z,100653.77
2018-10-17T22:48:18.523Z,100650.11
2018-10-17T22:50:26.518Z,100653.08
2018-10-17T22:52:34.529Z,100654.39
2018-10-17T22:54:42.588Z,100653.00
2018-10-17T22:56:50.591Z,100649.05
2018-10-17T22:59:01.014Z,100650.72
2018-10-17T23:01:09.560Z,100644.98
2018-10-17T23:03:23.931Z,100647.72
2018-10-17T23:05:31.938Z,100650.11
2018-10-17T23:07:39.970Z,100650.91
2018-10-17T23:09:48.018Z,100652.05
2018-10-17T23:11:56.032Z,100653.50
2018-10-17T23:14:04.106Z,100648.55
2018-10-17T23:16:12.567Z,100646.38
2018-10-17T23:18:20.552Z,100649.94
2018-10-17T23:20:30.590Z,100648.16
2018-10-17T23:22:39.314Z,100653.89
2018-10-17T23:24:47.503Z,100654.29
2018-10-17T23:26:52.901Z,100649.41
2018-10-17T23:29:01.298Z,100647.76
2018-10-17T23:31:10.622Z,100650.70
2018-10-17T23:33:18.691Z,100653.87
2018-10-17T23:35:26.683Z,100649.23
2018-10-17T23:37:35.300Z,100651.55
2018-10-17T23:39:44.731Z,100650.81
2018-10-17T23:41:53.768Z,100655.69
2018-10-17T23:44:01.721Z,100647.94
2018-10-17T23:46:09.715Z,100652.72
2018-10-17T23:48:19.348Z,100651.09
2018-10-17T23:50:27.393Z,100653.50
2018-10-17T23:52:39.158Z,100655.04
2018-10-17T23:54:47.130Z,100651.61
2018-10-17T23:56:55.160Z,100651.44
2018-10-17T23:59:03.262Z,100654.92
